sensor_id;sensor_type;location;lat;lon;timestamp;temperature;humidity
12839;DHT22;6486;51.034;5.262;2022-08-24T00:01:53;23.00;63.30
12839;DHT22;6486;51.034;5.262;2022-08-24T00:04:19;23.00;63.40
12839;DHT22;6486;51.034;5.262;2022-08-24T00:06:44;23.00;63.60
12839;DHT22;6486;51.034;5.262;2022-08-24T00:09:10;22.90;63.60
12839;DHT22;6486;51.034;5.262;2022-08-24T00:11:36;22.90;63.80
12839;DHT22;6486;51.034;5.262;2022-08-24T00:14:01;22.90;64.00
12839;DHT22;6486;51.034;5.262;2022-08-24T00:16:27;22.90;64.10
12839;DHT22;6486;51.034;5.262;2022-08-24T00:18:53;22.80;64.20
12839;DHT22;6486;51.034;5.262;2022-08-24T00:21:20;22.80;64.30
12839;DHT22;6486;51.034;5.262;2022-08-24T00:23:46;22.80;64.50
12839;DHT22;6486;51.034;5.262;2022-08-24T00:26:14;22.80;64.50
12839;DHT22;6486;51.034;5.262;2022-08-24T00:28:40;22.80;64.70
12839;DHT22;6486;51.034;5.262;2022-08-24T00:31:06;22.80;64.70
12839;DHT22;6486;51.034;5.262;2022-08-24T00:33:32;22.80;64.80
12839;DHT22;6486;51.034;5.262;2022-08-24T00:35:58;22.80;64.80
12839;DHT22;6486;51.034;5.262;2022-08-24T00:38:24;22.80;64.90
12839;DHT22;6486;51.034;5.262;2022-08-24T00:40:50;22.70;64.80
12839;DHT22;6486;51.034;5.262;2022-08-24T00:43:19;22.70;64.90
12839;DHT22;6486;51.034;5.262;2022-08-24T00:45:50;22.60;65.70
12839;DHT22;6486;51.034;5.262;2022-08-24T00:48:24;22.60;65.50
12839;DHT22;6486;51.034;5.262;2022-08-24T00:50:59;22.50;65.70
12839;DHT22;6486;51.034;5.262;2022-08-24T00:53:31;22.40;66.60
12839;DHT22;6486;51.034;5.262;2022-08-24T00:56:05;22.40;66.20
12839;DHT22;6486;51.034;5.262;2022-08-24T00:58:40;22.40;66.30
12839;DHT22;6486;51.034;5.262;2022-08-24T01:01:08;22.40;66.30
12839;DHT22;6486;51.034;5.262;2022-08-24T01:03:36;22.40;66.30
12839;DHT22;6486;51.034;5.262;2022-08-24T01:06:03;22.40;66.30
12839;DHT22;6486;51.034;5.262;2022-08-24T01:08:29;22.40;66.30
12839;DHT22;6486;51.034;5.262;2022-08-24T01:11:11;22.40;66.30
12839;DHT22;6486;51.034;5.262;2022-08-24T01:13:39;22.40;66.30
12839;DHT22;6486;51.034;5.262;2022-08-24T01:16:07;22.40;66.40
12839;DHT22;6486;51.034;5.262;2022-08-24T01:18:35;22.30;66.50
12839;DHT22;6486;51.034;5.262;2022-08-24T01:23:48;22.10;66.70
12839;DHT22;6486;51.034;5.262;2022-08-24T01:26:30;22.10;66.90
12839;DHT22;6486;51.034;5.262;2022-08-24T01:29:02;22.00;67.10
12839;DHT22;6486;51.034;5.262;2022-08-24T01:31:28;21.90;67.10
12839;DHT22;6486;51.034;5.262;2022-08-24T01:33:55;21.90;67.30
12839;DHT22;6486;51.034;5.262;2022-08-24T01:36:46;21.80;67.40
12839;DHT22;6486;51.034;5.262;2022-08-24T01:39:19;21.80;67.50
12839;DHT22;6486;51.034;5.262;2022-08-24T01:41:46;21.80;67.50
12839;DHT22;6486;51.034;5.262;2022-08-24T01:44:13;21.80;67.50
12839;DHT22;6486;51.034;5.262;2022-08-24T01:46:43;21.80;67.50
12839;DHT22;6486;51.034;5.262;2022-08-24T01:49:09;21.80;67.50
12839;DHT22;6486;51.034;5.262;2022-08-24T01:51:35;21.80;67.40
12839;DHT22;6486;51.034;5.262;2022-08-24T01:54:01;21.80;67.40
12839;DHT22;6486;51.034;5.262;2022-08-24T01:56:31;21.80;67.40
12839;DHT22;6486;51.034;5.262;2022-08-24T01:58:57;21.80;67.30
12839;DHT22;6486;51.034;5.262;2022-08-24T02:01:25;21.80;67.40
12839;DHT22;6486;51.034;5.262;2022-08-24T02:03:52;21.80;67.40
12839;DHT22;6486;51.034;5.262;2022-08-24T02:06:17;21.80;67.50
12839;DHT22;6486;51.034;5.262;2022-08-24T02:08:44;21.80;67.50
12839;DHT22;6486;51.034;5.262;2022-08-24T02:11:10;21.70;67.40
12839;DHT22;6486;51.034;5.262;2022-08-24T02:13:38;21.70;67.30
12839;DHT22;6486;51.034;5.262;2022-08-24T02:16:05;21.70;67.40
12839;DHT22;6486;51.034;5.262;2022-08-24T02:18:34;21.60;67.40
12839;DHT22;6486;51.034;5.262;2022-08-24T02:21:00;21.60;67.70
12839;DHT22;6486;51.034;5.262;2022-08-24T02:23:26;21.60;67.80
12839;DHT22;6486;51.034;5.262;2022-08-24T02:25:54;21.50;67.80
12839;DHT22;6486;51.034;5.262;2022-08-24T02:28:20;21.50;67.80
12839;DHT22;6486;51.034;5.262;2022-08-24T02:30:47;21.50;67.90
12839;DHT22;6486;51.034;5.262;2022-08-24T02:33:13;21.50;67.80
12839;DHT22;6486;51.034;5.262;2022-08-24T02:35:39;21.50;67.90
12839;DHT22;6486;51.034;5.262;2022-08-24T02:38:06;21.50;68.00
12839;DHT22;6486;51.034;5.262;2022-08-24T02:40:33;21.40;68.10
12839;DHT22;6486;51.034;5.262;2022-08-24T02:42:59;21.40;68.10
12839;DHT22;6486;51.034;5.262;2022-08-24T02:45:25;21.40;68.20
12839;DHT22;6486;51.034;5.262;2022-08-24T02:47:51;21.40;68.20
12839;DHT22;6486;51.034;5.262;2022-08-24T02:50:17;21.40;68.20
12839;DHT22;6486;51.034;5.262;2022-08-24T02:52:43;21.40;68.10
12839;DHT22;6486;51.034;5.262;2022-08-24T02:55:15;21.40;68.10
12839;DHT22;6486;51.034;5.262;2022-08-24T02:57:41;21.30;68.00
12839;DHT22;6486;51.034;5.262;2022-08-24T03:00:11;21.30;68.20
12839;DHT22;6486;51.034;5.262;2022-08-24T03:02:37;21.30;68.20
12839;DHT22;6486;51.034;5.262;2022-08-24T03:05:03;21.20;68.20
12839;DHT22;6486;51.034;5.262;2022-08-24T03:07:29;21.20;68.30
12839;DHT22;6486;51.034;5.262;2022-08-24T03:09:55;21.20;68.30
12839;DHT22;6486;51.034;5.262;2022-08-24T03:12:22;21.20;68.30
12839;DHT22;6486;51.034;5.262;2022-08-24T03:14:47;21.10;68.30
12839;DHT22;6486;51.034;5.262;2022-08-24T03:17:13;21.10;68.40
12839;DHT22;6486;51.034;5.262;2022-08-24T03:19:39;21.10;68.50
12839;DHT22;6486;51.034;5.262;2022-08-24T03:22:05;21.10;68.70
12839;DHT22;6486;51.034;5.262;2022-08-24T03:24:30;21.00;68.60
12839;DHT22;6486;51.034;5.262;2022-08-24T03:26:56;21.00;68.60
12839;DHT22;6486;51.034;5.262;2022-08-24T03:29:23;21.00;68.70
12839;DHT22;6486;51.034;5.262;2022-08-24T03:31:48;21.00;68.70
12839;DHT22;6486;51.034;5.262;2022-08-24T03:34:15;20.90;68.70
12839;DHT22;6486;51.034;5.262;2022-08-24T03:36:42;20.90;68.80
12839;DHT22;6486;51.034;5.262;2022-08-24T03:39:11;20.90;68.90
12839;DHT22;6486;51.034;5.262;2022-08-24T03:41:37;20.90;68.90
12839;DHT22;6486;51.034;5.262;2022-08-24T03:44:03;20.80;68.80
12839;DHT22;6486;51.034;5.262;2022-08-24T03:46:33;20.80;68.80
12839;DHT22;6486;51.034;5.262;2022-08-24T03:49:03;20.80;68.90
12839;DHT22;6486;51.034;5.262;2022-08-24T03:51:30;20.70;68.90
12839;DHT22;6486;51.034;5.262;2022-08-24T03:53:57;20.70;69.00
12839;DHT22;6486;51.034;5.262;2022-08-24T03:56:24;20.70;69.10
12839;DHT22;6486;51.034;5.262;2022-08-24T03:58:50;20.70;69.20
12839;DHT22;6486;51.034;5.262;2022-08-24T04:01:17;20.60;69.10
12839;DHT22;6486;51.034;5.262;2022-08-24T04:03:44;20.60;69.30
12839;DHT22;6486;51.034;5.262;2022-08-24T04:06:11;20.60;69.30
12839;DHT22;6486;51.034;5.262;2022-08-24T04:08:38;20.60;69.40
12839;DHT22;6486;51.034;5.262;2022-08-24T04:11:04;20.60;70.00
12839;DHT22;6486;51.034;5.262;2022-08-24T04:13:33;20.60;69.40
12839;DHT22;6486;51.034;5.262;2022-08-24T04:16:13;20.50;69.30
12839;DHT22;6486;51.034;5.262;2022-08-24T04:18:40;20.50;69.40
12839;DHT22;6486;51.034;5.262;2022-08-24T04:21:06;20.50;69.50
12839;DHT22;6486;51.034;5.262;2022-08-24T04:23:39;20.50;69.50
12839;DHT22;6486;51.034;5.262;2022-08-24T04:26:05;20.40;70.20
12839;DHT22;6486;51.034;5.262;2022-08-24T04:28:31;20.40;69.60
12839;DHT22;6486;51.034;5.262;2022-08-24T04:30:57;20.40;69.70
12839;DHT22;6486;51.034;5.262;2022-08-24T04:33:23;20.40;69.80
12839;DHT22;6486;51.034;5.262;2022-08-24T04:35:49;20.40;69.80
12839;DHT22;6486;51.034;5.262;2022-08-24T04:38:16;20.30;69.70
12839;DHT22;6486;51.034;5.262;2022-08-24T04:40:45;20.30;69.70
12839;DHT22;6486;51.034;5.262;2022-08-24T04:43:11;20.30;69.80
12839;DHT22;6486;51.034;5.262;2022-08-24T04:45:40;20.30;70.30
12839;DHT22;6486;51.034;5.262;2022-08-24T04:48:07;20.30;69.80
12839;DHT22;6486;51.034;5.262;2022-08-24T04:50:37;20.30;69.80
12839;DHT22;6486;51.034;5.262;2022-08-24T04:53:04;20.30;69.90
12839;DHT22;6486;51.034;5.262;2022-08-24T04:55:31;20.30;70.00
12839;DHT22;6486;51.034;5.262;2022-08-24T04:57:57;20.20;70.00
12839;DHT22;6486;51.034;5.262;2022-08-24T05:00:23;20.20;70.20
12839;DHT22;6486;51.034;5.262;2022-08-24T05:02:48;20.20;70.30
12839;DHT22;6486;51.034;5.262;2022-08-24T05:05:14;20.20;70.40
12839;DHT22;6486;51.034;5.262;2022-08-24T05:07:40;20.10;70.30
12839;DHT22;6486;51.034;5.262;2022-08-24T05:10:07;20.10;70.30
12839;DHT22;6486;51.034;5.262;2022-08-24T05:12:36;20.10;70.50
12839;DHT22;6486;51.034;5.262;2022-08-24T05:15:04;20.10;70.40
12839;DHT22;6486;51.034;5.262;2022-08-24T05:17:29;20.20;70.40
12839;DHT22;6486;51.034;5.262;2022-08-24T05:19:56;20.20;70.40
12839;DHT22;6486;51.034;5.262;2022-08-24T05:22:22;20.20;70.30
12839;DHT22;6486;51.034;5.262;2022-08-24T05:24:47;20.20;70.20
12839;DHT22;6486;51.034;5.262;2022-08-24T05:27:14;20.30;70.40
12839;DHT22;6486;51.034;5.262;2022-08-24T05:29:40;20.30;70.30
12839;DHT22;6486;51.034;5.262;2022-08-24T05:32:06;20.30;70.30
12839;DHT22;6486;51.034;5.262;2022-08-24T05:34:32;20.30;70.30
12839;DHT22;6486;51.034;5.262;2022-08-24T05:36:58;20.30;70.30
12839;DHT22;6486;51.034;5.262;2022-08-24T05:39:24;20.30;70.30
12839;DHT22;6486;51.034;5.262;2022-08-24T05:41:50;20.30;70.10
12839;DHT22;6486;51.034;5.262;2022-08-24T05:44:17;20.30;70.10
12839;DHT22;6486;51.034;5.262;2022-08-24T05:46:43;20.40;70.20
12839;DHT22;6486;51.034;5.262;2022-08-24T05:49:09;20.40;70.30
12839;DHT22;6486;51.034;5.262;2022-08-24T05:51:35;20.40;70.30
12839;DHT22;6486;51.034;5.262;2022-08-24T05:54:01;20.40;70.30
12839;DHT22;6486;51.034;5.262;2022-08-24T05:56:28;20.50;70.30
12839;DHT22;6486;51.034;5.262;2022-08-24T05:58:54;20.60;70.30
12839;DHT22;6486;51.034;5.262;2022-08-24T06:01:23;20.60;70.20
12839;DHT22;6486;51.034;5.262;2022-08-24T06:03:50;20.70;70.30
12839;DHT22;6486;51.034;5.262;2022-08-24T06:06:18;20.70;70.10
12839;DHT22;6486;51.034;5.262;2022-08-24T06:08:47;20.80;70.20
12839;DHT22;6486;51.034;5.262;2022-08-24T06:11:32;20.80;70.20
12839;DHT22;6486;51.034;5.262;2022-08-24T06:14:04;20.80;70.20
12839;DHT22;6486;51.034;5.262;2022-08-24T06:16:32;20.90;70.30
12839;DHT22;6486;51.034;5.262;2022-08-24T06:18:58;20.90;70.20
12839;DHT22;6486;51.034;5.262;2022-08-24T06:21:25;21.00;70.40
12839;DHT22;6486;51.034;5.262;2022-08-24T06:23:51;21.10;70.30
12839;DHT22;6486;51.034;5.262;2022-08-24T06:26:18;21.20;70.40
12839;DHT22;6486;51.034;5.262;2022-08-24T06:29:03;21.30;70.30
12839;DHT22;6486;51.034;5.262;2022-08-24T06:31:29;21.40;70.30
12839;DHT22;6486;51.034;5.262;2022-08-24T06:33:55;21.50;70.30
12839;DHT22;6486;51.034;5.262;2022-08-24T06:36:21;21.60;70.30
12839;DHT22;6486;51.034;5.262;2022-08-24T06:38:47;21.70;70.30
12839;DHT22;6486;51.034;5.262;2022-08-24T06:41:13;21.80;70.40
12839;DHT22;6486;51.034;5.262;2022-08-24T06:43:39;21.80;70.40
12839;DHT22;6486;51.034;5.262;2022-08-24T06:46:05;21.90;70.50
12839;DHT22;6486;51.034;5.262;2022-08-24T06:48:32;22.00;70.60
12839;DHT22;6486;51.034;5.262;2022-08-24T06:50:59;22.00;70.50
12839;DHT22;6486;51.034;5.262;2022-08-24T06:53:25;22.20;70.60
12839;DHT22;6486;51.034;5.262;2022-08-24T06:55:53;22.30;70.60
12839;DHT22;6486;51.034;5.262;2022-08-24T06:58:20;22.40;70.80
12839;DHT22;6486;51.034;5.262;2022-08-24T07:00:46;22.50;70.80
12839;DHT22;6486;51.034;5.262;2022-08-24T07:03:13;22.50;70.70
12839;DHT22;6486;51.034;5.262;2022-08-24T07:05:39;22.60;70.80
12839;DHT22;6486;51.034;5.262;2022-08-24T07:08:06;22.70;70.60
12839;DHT22;6486;51.034;5.262;2022-08-24T07:10:32;22.80;70.70
12839;DHT22;6486;51.034;5.262;2022-08-24T07:12:59;22.90;70.70
12839;DHT22;6486;51.034;5.262;2022-08-24T07:15:25;23.00;70.80
12839;DHT22;6486;51.034;5.262;2022-08-24T07:17:51;23.00;70.80
12839;DHT22;6486;51.034;5.262;2022-08-24T07:20:18;23.20;70.90
12839;DHT22;6486;51.034;5.262;2022-08-24T07:22:44;23.30;70.80
12839;DHT22;6486;51.034;5.262;2022-08-24T07:25:11;23.50;70.70
12839;DHT22;6486;51.034;5.262;2022-08-24T07:27:37;23.60;70.50
12839;DHT22;6486;51.034;5.262;2022-08-24T07:30:05;23.80;70.40
12839;DHT22;6486;51.034;5.262;2022-08-24T07:32:31;24.00;70.20
12839;DHT22;6486;51.034;5.262;2022-08-24T07:34:58;24.10;70.10
12839;DHT22;6486;51.034;5.262;2022-08-24T07:37:25;24.20;70.30
12839;DHT22;6486;51.034;5.262;2022-08-24T07:39:50;24.20;70.20
12839;DHT22;6486;51.034;5.262;2022-08-24T07:42:16;24.40;70.30
12839;DHT22;6486;51.034;5.262;2022-08-24T07:44:42;24.60;70.20
12839;DHT22;6486;51.034;5.262;2022-08-24T07:47:08;24.70;70.00
12839;DHT22;6486;51.034;5.262;2022-08-24T07:49:34;24.90;70.00
12839;DHT22;6486;51.034;5.262;2022-08-24T07:51:59;25.00;69.90
12839;DHT22;6486;51.034;5.262;2022-08-24T07:54:25;25.10;69.70
12839;DHT22;6486;51.034;5.262;2022-08-24T07:56:53;25.30;69.40
12839;DHT22;6486;51.034;5.262;2022-08-24T07:59:19;25.60;69.10
12839;DHT22;6486;51.034;5.262;2022-08-24T08:01:44;25.80;68.70
12839;DHT22;6486;51.034;5.262;2022-08-24T08:04:10;26.10;68.20
12839;DHT22;6486;51.034;5.262;2022-08-24T08:06:36;26.30;67.90
12839;DHT22;6486;51.034;5.262;2022-08-24T08:09:03;26.40;67.50
12839;DHT22;6486;51.034;5.262;2022-08-24T08:11:29;26.50;67.30
12839;DHT22;6486;51.034;5.262;2022-08-24T08:13:55;26.70;67.00
12839;DHT22;6486;51.034;5.262;2022-08-24T08:16:20;26.90;66.50
12839;DHT22;6486;51.034;5.262;2022-08-24T08:18:46;27.10;66.00
12839;DHT22;6486;51.034;5.262;2022-08-24T08:21:12;27.30;65.70
12839;DHT22;6486;51.034;5.262;2022-08-24T08:23:56;27.40;65.40
12839;DHT22;6486;51.034;5.262;2022-08-24T08:26:42;27.40;65.30
12839;DHT22;6486;51.034;5.262;2022-08-24T08:29:08;27.40;65.20
12839;DHT22;6486;51.034;5.262;2022-08-24T08:31:36;27.40;65.00
12839;DHT22;6486;51.034;5.262;2022-08-24T08:34:03;27.40;64.60
12839;DHT22;6486;51.034;5.262;2022-08-24T08:36:29;27.30;64.50
12839;DHT22;6486;51.034;5.262;2022-08-24T08:38:55;27.40;64.30
12839;DHT22;6486;51.034;5.262;2022-08-24T08:44:33;27.70;63.80
12839;DHT22;6486;51.034;5.262;2022-08-24T08:56:15;28.20;63.00
12839;DHT22;6486;51.034;5.262;2022-08-24T09:14:51;29.10;60.20
12839;DHT22;6486;51.034;5.262;2022-08-24T09:20:39;29.70;59.40
12839;DHT22;6486;51.034;5.262;2022-08-24T09:25:56;29.70;59.10
12839;DHT22;6486;51.034;5.262;2022-08-24T09:34:07;29.30;59.20
12839;DHT22;6486;51.034;5.262;2022-08-24T09:39:35;29.40;58.90
12839;DHT22;6486;51.034;5.262;2022-08-24T09:45:17;29.80;57.80
12839;DHT22;6486;51.034;5.262;2022-08-24T09:50:59;30.20;57.20
12839;DHT22;6486;51.034;5.262;2022-08-24T09:56:33;30.70;56.10
12839;DHT22;6486;51.034;5.262;2022-08-24T10:03:01;30.50;55.20
12839;DHT22;6486;51.034;5.262;2022-08-24T10:05:09;30.40;55.60
12839;DHT22;6486;51.034;5.262;2022-08-24T10:10:49;30.10;55.00
12839;DHT22;6486;51.034;5.262;2022-08-24T10:13:24;30.00;55.10
12839;DHT22;6486;51.034;5.262;2022-08-24T10:21:45;29.70;55.50
12839;DHT22;6486;51.034;5.262;2022-08-24T10:27:43;29.60;55.60
12839;DHT22;6486;51.034;5.262;2022-08-24T10:46:51;30.20;53.80
12839;DHT22;6486;51.034;5.262;2022-08-24T10:54:49;31.60;51.80
12839;DHT22;6486;51.034;5.262;2022-08-24T11:00:09;32.30;50.20
12839;DHT22;6486;51.034;5.262;2022-08-24T11:02:48;32.70;49.80
12839;DHT22;6486;51.034;5.262;2022-08-24T11:05:27;32.90;49.20
12839;DHT22;6486;51.034;5.262;2022-08-24T11:08:03;33.10;48.60
12839;DHT22;6486;51.034;5.262;2022-08-24T11:10:35;33.40;47.70
12839;DHT22;6486;51.034;5.262;2022-08-24T11:13:23;33.60;47.50
12839;DHT22;6486;51.034;5.262;2022-08-24T11:15:55;33.70;46.30
12839;DHT22;6486;51.034;5.262;2022-08-24T11:18:22;33.80;46.40
12839;DHT22;6486;51.034;5.262;2022-08-24T11:20:51;34.00;46.10
12839;DHT22;6486;51.034;5.262;2022-08-24T11:23:20;34.10;45.60
12839;DHT22;6486;51.034;5.262;2022-08-24T11:25:57;34.30;45.50
12839;DHT22;6486;51.034;5.262;2022-08-24T11:28:37;34.40;45.10
12839;DHT22;6486;51.034;5.262;2022-08-24T11:31:11;34.60;44.70
12839;DHT22;6486;51.034;5.262;2022-08-24T11:33:46;34.70;43.90
12839;DHT22;6486;51.034;5.262;2022-08-24T11:36:26;34.80;43.60
12839;DHT22;6486;51.034;5.262;2022-08-24T11:39:31;34.80;43.20
12839;DHT22;6486;51.034;5.262;2022-08-24T11:42:12;34.90;42.60
12839;DHT22;6486;51.034;5.262;2022-08-24T11:47:47;35.00;42.40
12839;DHT22;6486;51.034;5.262;2022-08-24T11:50:35;35.10;41.50
12839;DHT22;6486;51.034;5.262;2022-08-24T11:58:50;35.20;41.40
12839;DHT22;6486;51.034;5.262;2022-08-24T12:01:34;35.40;41.10
12839;DHT22;6486;51.034;5.262;2022-08-24T12:04:08;35.50;40.60
12839;DHT22;6486;51.034;5.262;2022-08-24T12:06:59;35.50;40.30
12839;DHT22;6486;51.034;5.262;2022-08-24T12:09:41;35.50;40.00
12839;DHT22;6486;51.034;5.262;2022-08-24T12:12:24;35.60;40.00
12839;DHT22;6486;51.034;5.262;2022-08-24T12:17:38;35.90;40.00
12839;DHT22;6486;51.034;5.262;2022-08-24T12:20:30;36.10;39.20
12839;DHT22;6486;51.034;5.262;2022-08-24T12:23:01;36.10;39.00
12839;DHT22;6486;51.034;5.262;2022-08-24T12:25:30;36.10;38.50
12839;DHT22;6486;51.034;5.262;2022-08-24T12:28:22;36.20;37.90
12839;DHT22;6486;51.034;5.262;2022-08-24T12:30:49;36.20;37.50
12839;DHT22;6486;51.034;5.262;2022-08-24T12:33:18;36.20;37.60
12839;DHT22;6486;51.034;5.262;2022-08-24T12:35:53;36.30;37.90
12839;DHT22;6486;51.034;5.262;2022-08-24T12:38:32;36.40;37.80
12839;DHT22;6486;51.034;5.262;2022-08-24T12:41:07;36.50;37.30
12839;DHT22;6486;51.034;5.262;2022-08-24T12:43:47;36.40;37.40
12839;DHT22;6486;51.034;5.262;2022-08-24T12:46:14;36.40;37.00
12839;DHT22;6486;51.034;5.262;2022-08-24T12:48:51;36.40;36.80
12839;DHT22;6486;51.034;5.262;2022-08-24T12:56:49;36.60;35.90
12839;DHT22;6486;51.034;5.262;2022-08-24T13:02:24;36.70;36.20
12839;DHT22;6486;51.034;5.262;2022-08-24T13:07:53;36.80;35.50
12839;DHT22;6486;51.034;5.262;2022-08-24T13:12:54;37.10;35.90
12839;DHT22;6486;51.034;5.262;2022-08-24T13:23:14;36.80;35.40
12839;DHT22;6486;51.034;5.262;2022-08-24T13:31:20;36.80;34.70
12839;DHT22;6486;51.034;5.262;2022-08-24T13:33:56;36.90;34.60
12839;DHT22;6486;51.034;5.262;2022-08-24T13:49:44;37.20;33.40
12839;DHT22;6486;51.034;5.262;2022-08-24T13:52:19;37.20;33.30
12839;DHT22;6486;51.034;5.262;2022-08-24T14:05:36;37.40;33.00
12839;DHT22;6486;51.034;5.262;2022-08-24T14:24:45;37.60;31.70
12839;DHT22;6486;51.034;5.262;2022-08-24T14:46:28;38.20;31.40
12839;DHT22;6486;51.034;5.262;2022-08-24T14:54:31;38.40;31.20
12839;DHT22;6486;51.034;5.262;2022-08-24T15:08:02;38.60;31.10
12839;DHT22;6486;51.034;5.262;2022-08-24T15:10:46;38.60;30.90
12839;DHT22;6486;51.034;5.262;2022-08-24T15:14:02;38.60;30.90
12839;DHT22;6486;51.034;5.262;2022-08-24T15:19:21;38.60;31.00
12839;DHT22;6486;51.034;5.262;2022-08-24T15:22:06;38.70;31.30
12839;DHT22;6486;51.034;5.262;2022-08-24T15:27:19;38.80;31.50
12839;DHT22;6486;51.034;5.262;2022-08-24T15:29:57;38.90;31.50
12839;DHT22;6486;51.034;5.262;2022-08-24T15:32:38;38.90;31.40
12839;DHT22;6486;51.034;5.262;2022-08-24T15:35:04;39.00;31.30
12839;DHT22;6486;51.034;5.262;2022-08-24T15:37:38;39.10;31.20
12839;DHT22;6486;51.034;5.262;2022-08-24T15:40:17;39.30;31.10
12839;DHT22;6486;51.034;5.262;2022-08-24T15:42:46;39.50;31.20
12839;DHT22;6486;51.034;5.262;2022-08-24T15:45:12;39.60;31.10
12839;DHT22;6486;51.034;5.262;2022-08-24T15:47:39;39.80;31.00
12839;DHT22;6486;51.034;5.262;2022-08-24T15:52:52;40.10;30.30
12839;DHT22;6486;51.034;5.262;2022-08-24T15:55:39;40.20;30.10
12839;DHT22;6486;51.034;5.262;2022-08-24T16:00:37;40.50;29.80
12839;DHT22;6486;51.034;5.262;2022-08-24T16:03:25;40.60;29.40
12839;DHT22;6486;51.034;5.262;2022-08-24T16:05:53;40.20;29.80
12839;DHT22;6486;51.034;5.262;2022-08-24T16:08:19;40.30;29.60
12839;DHT22;6486;51.034;5.262;2022-08-24T16:10:56;40.50;29.60
12839;DHT22;6486;51.034;5.262;2022-08-24T16:13:31;40.50;29.40
12839;DHT22;6486;51.034;5.262;2022-08-24T16:18:49;41.20;29.00
12839;DHT22;6486;51.034;5.262;2022-08-24T16:21:40;41.70;28.60
12839;DHT22;6486;51.034;5.262;2022-08-24T16:24:25;41.20;28.50
12839;DHT22;6486;51.034;5.262;2022-08-24T16:32:27;39.70;29.40
12839;DHT22;6486;51.034;5.262;2022-08-24T16:37:30;38.40;30.20
12839;DHT22;6486;51.034;5.262;2022-08-24T16:39:56;37.80;30.80
12839;DHT22;6486;51.034;5.262;2022-08-24T16:42:25;37.30;31.50
12839;DHT22;6486;51.034;5.262;2022-08-24T16:44:51;36.90;32.30
12839;DHT22;6486;51.034;5.262;2022-08-24T16:47:18;36.40;32.90
12839;DHT22;6486;51.034;5.262;2022-08-24T16:49:44;36.10;33.60
12839;DHT22;6486;51.034;5.262;2022-08-24T16:52:10;35.70;34.10
12839;DHT22;6486;51.034;5.262;2022-08-24T16:54:36;35.50;34.60
12839;DHT22;6486;51.034;5.262;2022-08-24T16:57:13;35.20;35.10
12839;DHT22;6486;51.034;5.262;2022-08-24T16:59:42;34.90;36.00
12839;DHT22;6486;51.034;5.262;2022-08-24T17:02:09;34.70;35.80
12839;DHT22;6486;51.034;5.262;2022-08-24T17:04:36;34.50;36.10
12839;DHT22;6486;51.034;5.262;2022-08-24T17:07:03;34.20;36.40
12839;DHT22;6486;51.034;5.262;2022-08-24T17:09:30;34.10;36.80
12839;DHT22;6486;51.034;5.262;2022-08-24T17:11:56;33.90;37.10
12839;DHT22;6486;51.034;5.262;2022-08-24T17:14:22;33.70;37.40
12839;DHT22;6486;51.034;5.262;2022-08-24T17:16:47;33.60;38.00
12839;DHT22;6486;51.034;5.262;2022-08-24T17:19:16;33.40;38.20
12839;DHT22;6486;51.034;5.262;2022-08-24T17:21:43;33.30;38.60
12839;DHT22;6486;51.034;5.262;2022-08-24T17:24:09;33.20;38.80
12839;DHT22;6486;51.034;5.262;2022-08-24T17:26:37;33.10;38.80
12839;DHT22;6486;51.034;5.262;2022-08-24T17:29:05;33.00;39.10
12839;DHT22;6486;51.034;5.262;2022-08-24T17:31:31;32.90;39.40
12839;DHT22;6486;51.034;5.262;2022-08-24T17:33:58;32.80;39.60
12839;DHT22;6486;51.034;5.262;2022-08-24T17:36:25;32.80;39.70
12839;DHT22;6486;51.034;5.262;2022-08-24T17:38:53;32.70;40.00
12839;DHT22;6486;51.034;5.262;2022-08-24T17:41:19;32.60;40.20
12839;DHT22;6486;51.034;5.262;2022-08-24T17:43:44;32.50;40.30
12839;DHT22;6486;51.034;5.262;2022-08-24T17:46:11;32.50;40.50
12839;DHT22;6486;51.034;5.262;2022-08-24T17:48:41;32.50;40.60
12839;DHT22;6486;51.034;5.262;2022-08-24T17:51:07;32.50;40.70
12839;DHT22;6486;51.034;5.262;2022-08-24T17:53:33;32.40;40.80
12839;DHT22;6486;51.034;5.262;2022-08-24T17:56:01;32.40;41.10
12839;DHT22;6486;51.034;5.262;2022-08-24T17:58:27;32.30;41.30
12839;DHT22;6486;51.034;5.262;2022-08-24T18:00:53;32.30;41.50
12839;DHT22;6486;51.034;5.262;2022-08-24T18:03:19;32.20;41.60
12839;DHT22;6486;51.034;5.262;2022-08-24T18:05:45;32.10;41.80
12839;DHT22;6486;51.034;5.262;2022-08-24T18:08:11;32.10;42.00
12839;DHT22;6486;51.034;5.262;2022-08-24T18:10:37;32.00;42.20
12839;DHT22;6486;51.034;5.262;2022-08-24T18:13:03;31.90;42.30
12839;DHT22;6486;51.034;5.262;2022-08-24T18:15:31;31.80;42.30
12839;DHT22;6486;51.034;5.262;2022-08-24T18:18:00;31.80;42.40
12839;DHT22;6486;51.034;5.262;2022-08-24T18:20:32;31.70;42.50
12839;DHT22;6486;51.034;5.262;2022-08-24T18:22:59;31.60;42.50
12839;DHT22;6486;51.034;5.262;2022-08-24T18:25:24;31.60;42.60
12839;DHT22;6486;51.034;5.262;2022-08-24T18:27:53;31.50;43.20
12839;DHT22;6486;51.034;5.262;2022-08-24T18:30:23;31.50;42.60
12839;DHT22;6486;51.034;5.262;2022-08-24T18:32:50;31.40;42.80
12839;DHT22;6486;51.034;5.262;2022-08-24T18:35:15;31.30;42.90
12839;DHT22;6486;51.034;5.262;2022-08-24T18:37:41;31.20;43.00
12839;DHT22;6486;51.034;5.262;2022-08-24T18:40:08;31.10;43.80
12839;DHT22;6486;51.034;5.262;2022-08-24T18:42:35;31.00;43.40
12839;DHT22;6486;51.034;5.262;2022-08-24T18:45:02;30.90;43.80
12839;DHT22;6486;51.034;5.262;2022-08-24T18:47:28;30.80;44.10
12839;DHT22;6486;51.034;5.262;2022-08-24T18:49:53;30.70;44.20
12839;DHT22;6486;51.034;5.262;2022-08-24T18:52:19;30.70;44.50
12839;DHT22;6486;51.034;5.262;2022-08-24T18:54:47;30.60;44.60
12839;DHT22;6486;51.034;5.262;2022-08-24T18:57:14;30.50;44.60
12839;DHT22;6486;51.034;5.262;2022-08-24T18:59:40;30.40;44.70
12839;DHT22;6486;51.034;5.262;2022-08-24T19:02:19;30.30;44.80
12839;DHT22;6486;51.034;5.262;2022-08-24T19:07:29;30.20;44.80
12839;DHT22;6486;51.034;5.262;2022-08-24T19:09:57;30.10;44.80
12839;DHT22;6486;51.034;5.262;2022-08-24T19:12:23;30.00;44.80
12839;DHT22;6486;51.034;5.262;2022-08-24T19:14:53;30.00;44.90
12839;DHT22;6486;51.034;5.262;2022-08-24T19:17:20;29.90;45.00
12839;DHT22;6486;51.034;5.262;2022-08-24T19:19:45;29.80;45.10
12839;DHT22;6486;51.034;5.262;2022-08-24T19:22:11;29.80;45.30
12839;DHT22;6486;51.034;5.262;2022-08-24T19:24:37;29.70;45.40
12839;DHT22;6486;51.034;5.262;2022-08-24T19:27:04;29.60;45.50
12839;DHT22;6486;51.034;5.262;2022-08-24T19:29:31;29.50;45.60
12839;DHT22;6486;51.034;5.262;2022-08-24T19:31:57;29.40;45.90
12839;DHT22;6486;51.034;5.262;2022-08-24T19:34:23;29.30;46.10
12839;DHT22;6486;51.034;5.262;2022-08-24T19:36:49;29.30;46.20
12839;DHT22;6486;51.034;5.262;2022-08-24T19:39:15;29.20;46.40
12839;DHT22;6486;51.034;5.262;2022-08-24T19:41:44;29.20;46.60
12839;DHT22;6486;51.034;5.262;2022-08-24T19:44:12;29.10;46.80
12839;DHT22;6486;51.034;5.262;2022-08-24T19:46:56;29.00;46.90
12839;DHT22;6486;51.034;5.262;2022-08-24T19:49:24;29.00;47.10
12839;DHT22;6486;51.034;5.262;2022-08-24T19:51:50;28.90;47.10
12839;DHT22;6486;51.034;5.262;2022-08-24T19:54:17;28.80;47.30